Time,TemperatureF,DewpointF,PressureIn,WindDirection,WindDirectionDegrees,WindSpeedMPH,WindSpeedGustMPH,Humidity,HourlyPrecipIn,Conditions,Clouds,dailyrainin,SoftwareType,DateUTC
2013-01-26 00:00:00,18.5,11.7,29.18,SW,225,0.0,0.0,74,0.00,,,0.00,meteohub,2013-01-26 05:00:00,
2013-01-26 00:01:00,18.5,11.7,29.18,SW,225,0.0,0.0,74,0.00,,,0.00,meteohub,2013-01-26 05:01:00,
2013-01-26 00:02:00,18.5,11.7,29.18,SW,225,0.0,0.0,74,0.00,,,0.00,meteohub,2013-01-26 05:02:00,
2013-01-26 00:07:00,18.7,12.0,29.18,SSW,202,0.0,0.0,75,0.00,,,0.00,meteohub,2013-01-26 05:07:00,
2013-01-26 00:12:00,18.5,11.7,29.18,South,180,0.0,0.0,74,0.00,,,0.00,meteohub,2013-01-26 05:12:00,
2013-01-26 00:17:00,18.5,11.7,29.18,SSE,158,0.0,0.0,74,0.00,,,0.00,meteohub,2013-01-26 05:17:00,
2013-01-26 00:22:00,18.5,11.7,29.18,NW,315,0.0,0.0,74,0.00,,,0.00,meteohub,2013-01-26 05:22:00,
2013-01-26 00:27:00,18.5,11.7,29.18,SW,225,0.0,0.0,74,0.00,,,0.00,meteohub,2013-01-26 05:27:00,
2013-01-26 00:32:00,18.5,11.8,29.15,SW,225,0.0,0.0,75,0.00,,,0.00,meteohub,2013-01-26 05:32:00,
2013-01-26 00:38:00,18.5,11.8,29.15,SW,225,0.0,0.0,75,0.00,,,0.00,meteohub,2013-01-26 05:38:00,
2013-01-26 00:43:00,18.5,11.8,29.18,West,270,0.0,0.0,75,0.00,,,0.00,meteohub,2013-01-26 05:43:00,
2013-01-26 00:48:00,18.5,11.8,29.18,SSW,202,0.0,0.0,75,0.00,,,0.00,meteohub,2013-01-26 05:48:00,
2013-01-26 00:53:00,18.5,11.7,29.18,WSW,248,0.0,0.0,74,0.00,,,0.00,meteohub,2013-01-26 05:53:00,
2013-01-26 00:58:00,18.5,11.7,29.18,SW,225,0.0,0.0,74,0.00,,,0.00,meteohub,2013-01-26 05:58:00,
2013-01-26 01:03:00,18.3,11.5,29.18,SW,225,0.0,0.0,74,0.00,,,0.00,meteohub,2013-01-26 06:03:00,
2013-01-26 01:08:00,18.3,11.5,29.18,SW,225,0.0,0.0,74,0.00,,,0.00,meteohub,2013-01-26 06:08:00,
2013-01-26 01:13:00,18.5,11.7,29.15,SW,225,0.0,0.0,74,0.00,,,0.00,meteohub,2013-01-26 06:13:00,
2013-01-26 01:18:00,18.5,11.8,29.15,SW,225,0.0,0.0,75,0.00,,,0.00,meteohub,2013-01-26 06:18:00,
2013-01-26 01:23:00,18.3,11.7,29.15,SW,225,0.0,0.0,75,0.00,,,0.00,meteohub,2013-01-26 06:23:00,
2013-01-26 01:28:00,18.3,11.7,29.18,SW,225,0.0,0.0,75,0.00,,,0.00,meteohub,2013-01-26 06:28:00,
2013-01-26 01:33:00,18.3,11.7,29.18,SW,225,0.0,0.0,75,0.00,,,0.00,meteohub,2013-01-26 06:33:00,
2013-01-26 01:39:00,18.5,12.2,29.18,WNW,292,0.0,0.0,76,0.00,,,0.00,meteohub,2013-01-26 06:39:00,
2013-01-26 01:44:00,18.5,12.6,29.18,SW,225,0.0,0.0,77,0.00,,,0.00,meteohub,2013-01-26 06:44:00,
2013-01-26 01:49:00,18.5,12.6,29.18,SW,225,0.0,0.0,77,0.00,,,0.00,meteohub,2013-01-26 06:49:00,
2013-01-26 01:54:00,18.5,12.6,29.18,SSW,202,0.0,0.0,77,0.00,,,0.00,meteohub,2013-01-26 06:54:00,
2013-01-26 01:59:00,18.5,12.6,29.18,SSW,202,0.0,0.0,77,0.00,,,0.00,meteohub,2013-01-26 06:59:00,
2013-01-26 02:04:00,18.5,12.6,29.18,SW,225,0.0,0.0,77,0.00,,,0.00,meteohub,2013-01-26 07:04:00,
2013-01-26 02:09:00,18.5,12.2,29.18,SW,225,0.0,0.0,76,0.00,,,0.00,meteohub,2013-01-26 07:09:00,
2013-01-26 02:14:00,18.5,12.6,29.18,WSW,248,0.0,0.0,77,0.00,,,0.00,meteohub,2013-01-26 07:14:00,
2013-01-26 02:19:00,18.5,12.6,29.18,SW,225,0.0,0.0,77,0.00,,,0.00,meteohub,2013-01-26 07:19:00,
2013-01-26 02:24:00,18.5,12.6,29.18,SW,225,0.0,0.0,77,0.00,,,0.00,meteohub,2013-01-26 07:24:00,
2013-01-26 02:30:00,18.5,12.6,29.18,WSW,248,0.0,0.0,77,0.00,,,0.00,meteohub,2013-01-26 07:30:00,
2013-01-26 02:35:00,18.5,12.6,29.18,SW,225,0.0,0.0,77,0.00,,,0.00,meteohub,2013-01-26 07:35:00,
2013-01-26 02:40:00,18.5,12.7,29.18,SSW,202,0.0,0.0,78,0.00,,,0.00,meteohub,2013-01-26 07:40:00,
2013-01-26 02:45:00,18.5,12.7,29.21,SW,225,0.0,0.0,78,0.00,,,0.00,meteohub,2013-01-26 07:45:00,
2013-01-26 02:50:00,18.5,12.6,29.21,SW,225,0.0,0.0,77,0.00,,,0.00,meteohub,2013-01-26 07:50:00,
2013-01-26 02:55:00,18.5,12.6,29.21,WSW,248,0.0,0.0,77,0.00,,,0.00,meteohub,2013-01-26 07:55:00,
2013-01-26 03:00:00,18.5,12.6,29.23,SW,225,0.0,0.0,77,0.00,,,0.00,meteohub,2013-01-26 08:00:00,
2013-01-26 03:05:00,18.5,12.6,29.23,SW,225,0.0,0.0,77,0.00,,,0.00,meteohub,2013-01-26 08:05:00,
2013-01-26 03:10:00,18.3,12.4,29.23,SW,225,0.0,0.0,77,0.00,,,0.00,meteohub,2013-01-26 08:10:00,
2013-01-26 03:15:00,18.3,12.4,29.21,SW,225,0.0,0.0,77,0.00,,,0.00,meteohub,2013-01-26 08:15:00,
2013-01-26 03:20:00,18.3,12.0,29.21,SW,225,0.0,0.0,76,0.00,,,0.00,meteohub,2013-01-26 08:20:00,
2013-01-26 03:25:00,18.3,12.0,29.21,SW,225,0.0,0.0,76,0.00,,,0.00,meteohub,2013-01-26 08:25:00,
2013-01-26 03:31:00,18.3,12.0,29.23,SW,225,0.0,0.0,76,0.00,,,0.00,meteohub,2013-01-26 08:31:00,
2013-01-26 03:36:00,18.3,12.0,29.23,SW,225,0.0,0.0,76,0.00,,,0.00,meteohub,2013-01-26 08:36:00,
2013-01-26 03:41:00,18.5,12.2,29.23,SW,225,0.0,0.0,76,0.00,,,0.00,meteohub,2013-01-26 08:41:00,
2013-01-26 03:46:00,18.5,12.6,29.23,SW,225,0.0,0.0,77,0.00,,,0.00,meteohub,2013-01-26 08:46:00,
2013-01-26 03:51:00,18.5,12.2,29.23,SW,225,0.0,0.0,76,0.00,,,0.00,meteohub,2013-01-26 08:51:00,
2013-01-26 03:56:00,18.5,12.2,29.23,SW,225,0.0,0.0,76,0.00,,,0.00,meteohub,2013-01-26 08:56:00,
2013-01-26 04:01:00,18.5,12.2,29.23,SW,225,0.0,0.0,76,0.00,,,0.00,meteohub,2013-01-26 09:01:00,
2013-01-26 04:06:00,18.3,12.0,29.23,SW,225,0.0,0.0,76,0.00,,,0.00,meteohub,2013-01-26 09:06:00,
2013-01-26 04:11:00,18.5,12.2,29.23,SW,225,0.0,0.0,76,0.00,,,0.00,meteohub,2013-01-26 09:11:00,
2013-01-26 04:16:00,18.3,12.0,29.23,SW,225,0.0,0.0,76,0.00,,,0.00,meteohub,2013-01-26 09:16:00,
2013-01-26 04:21:00,18.3,12.0,29.23,SW,225,0.0,0.0,76,0.00,,,0.00,meteohub,2013-01-26 09:21:00,
2013-01-26 04:26:00,18.3,12.0,29.23,SW,225,0.0,0.0,76,0.00,,,0.00,meteohub,2013-01-26 09:26:00,
2013-01-26 04:32:00,18.3,12.0,29.23,SW,225,0.0,0.0,76,0.00,,,0.00,meteohub,2013-01-26 09:32:00,
2013-01-26 05:01:00,18.5,12.2,29.23,SW,225,0.0,0.0,76,0.00,,,0.00,meteohub,2013-01-26 10:01:00,
2013-01-26 05:06:00,18.5,12.6,29.23,SW,225,0.0,0.0,77,0.00,,,0.00,meteohub,2013-01-26 10:06:00,
2013-01-26 05:11:00,18.5,12.6,29.23,West,270,0.0,0.0,77,-99.99,,,0.00,meteohub,2013-01-26 10:11:00,
2013-01-26 05:16:00,18.9,12.9,29.23,West,270,0.0,0.0,77,-99.99,,,0.00,meteohub,2013-01-26 10:16:00,
2013-01-26 05:21:00,18.9,12.9,29.23,West,270,0.0,0.0,77,-99.99,,,0.00,meteohub,2013-01-26 10:21:00,
2013-01-26 05:29:00,19.2,13.3,29.23,WSW,248,0.0,0.0,77,-99.99,,,0.00,meteohub,2013-01-26 10:29:00,
2013-01-26 05:34:00,19.4,13.5,29.23,West,270,0.0,0.0,77,-99.99,,,0.00,meteohub,2013-01-26 10:34:00,
2013-01-26 05:39:00,19.4,13.5,29.23,West,270,0.0,0.0,77,-99.99,,,0.00,meteohub,2013-01-26 10:39:00,
2013-01-26 05:44:00,19.4,13.5,29.23,ESE,112,0.0,0.0,77,-99.99,,,0.00,meteohub,2013-01-26 10:44:00,
2013-01-26 05:49:00,19.6,13.6,29.23,SW,225,0.0,0.0,77,0.00,,,0.00,meteohub,2013-01-26 10:49:00,
2013-01-26 05:55:00,19.8,13.8,29.23,West,270,0.0,0.0,77,0.00,,,0.00,meteohub,2013-01-26 10:55:00,
2013-01-26 06:00:00,19.8,14.0,29.23,North,0,0.0,0.0,78,0.00,,,0.00,meteohub,2013-01-26 11:00:00,
2013-01-26 06:05:00,19.8,13.8,29.23,NW,315,0.0,0.0,77,0.00,,,0.00,meteohub,2013-01-26 11:05:00,
2013-01-26 06:10:00,19.9,14.0,29.23,West,270,0.0,0.0,77,0.00,,,0.00,meteohub,2013-01-26 11:10:00,
2013-01-26 06:15:00,19.9,14.0,29.23,WNW,292,0.0,0.0,77,0.00,,,0.00,meteohub,2013-01-26 11:15:00,
2013-01-26 06:20:00,19.9,14.0,29.23,WNW,292,0.0,0.0,77,0.00,,,0.00,meteohub,2013-01-26 11:20:00,
2013-01-26 06:25:00,20.1,14.0,29.23,West,270,0.0,0.0,77,0.00,,,0.00,meteohub,2013-01-26 11:25:00,
2013-01-26 06:30:00,20.1,14.0,29.26,West,270,0.0,0.0,77,0.00,,,0.00,meteohub,2013-01-26 11:30:00,
2013-01-26 06:35:00,20.1,14.0,29.26,West,270,0.0,0.0,77,0.00,,,0.00,meteohub,2013-01-26 11:35:00,
2013-01-26 06:40:00,20.1,13.8,29.26,WNW,292,0.0,0.0,76,0.00,,,0.00,meteohub,2013-01-26 11:40:00,
2013-01-26 06:45:00,20.3,14.2,29.26,West,270,0.0,0.0,77,0.00,,,0.00,meteohub,2013-01-26 11:45:00,
2013-01-26 06:51:00,20.3,14.0,29.26,NE,45,0.0,0.0,76,0.00,,,0.00,meteohub,2013-01-26 11:51:00,
2013-01-26 06:56:00,20.3,14.0,29.26,WSW,248,0.0,0.0,76,0.00,,,0.00,meteohub,2013-01-26 11:56:00,
2013-01-26 07:01:00,20.3,14.0,29.29,West,270,0.0,0.0,76,0.00,,,0.00,meteohub,2013-01-26 12:01:00,
2013-01-26 07:06:00,20.3,13.6,29.29,SW,225,0.0,0.0,75,0.00,,,0.00,meteohub,2013-01-26 12:06:00,
2013-01-26 07:11:00,20.3,13.6,29.29,North,0,0.0,0.0,75,0.00,,,0.00,meteohub,2013-01-26 12:11:00,
2013-01-26 07:16:00,20.3,13.6,29.29,West,270,0.0,0.0,75,0.00,,,0.00,meteohub,2013-01-26 12:16:00,
2013-01-26 07:21:00,20.3,13.6,29.29,WNW,292,0.0,0.0,75,0.00,,,0.00,meteohub,2013-01-26 12:21:00,
2013-01-26 07:26:00,20.3,13.6,29.29,WSW,248,0.0,0.0,75,0.00,,,0.00,meteohub,2013-01-26 12:26:00,
2013-01-26 07:31:00,20.3,13.3,29.26,NW,315,0.0,0.0,74,0.00,,,0.00,meteohub,2013-01-26 12:31:00,
2013-01-26 07:36:00,20.3,13.3,29.26,NW,315,0.0,0.0,74,0.00,,,0.00,meteohub,2013-01-26 12:36:00,
2013-01-26 07:42:00,20.1,13.1,29.26,West,270,0.0,0.0,74,0.00,,,0.00,meteohub,2013-01-26 12:42:00,
2013-01-26 07:47:00,20.1,12.9,29.29,West,270,0.0,0.0,73,0.00,,,0.00,meteohub,2013-01-26 12:47:00,
2013-01-26 07:52:00,19.9,12.7,29.29,WNW,292,0.0,0.0,73,0.00,,,0.00,meteohub,2013-01-26 12:52:00,
2013-01-26 07:57:00,19.8,12.6,29.29,West,270,0.0,0.0,73,0.00,,,0.00,meteohub,2013-01-26 12:57:00,
2013-01-26 08:02:00,19.4,12.2,29.29,West,270,0.0,0.0,73,0.00,,,0.00,meteohub,2013-01-26 13:02:00,
2013-01-26 08:07:00,19.4,12.2,29.29,West,270,0.0,0.0,73,0.00,,,0.00,meteohub,2013-01-26 13:07:00,
2013-01-26 08:12:00,19.6,12.4,29.29,NW,315,0.0,0.0,73,0.00,,,0.00,meteohub,2013-01-26 13:12:00,
2013-01-26 08:17:00,19.4,12.2,29.29,WNW,292,0.0,0.0,73,0.00,,,0.00,meteohub,2013-01-26 13:17:00,
2013-01-26 08:22:00,19.4,12.2,29.29,WNW,292,0.0,0.0,73,0.00,,,0.00,meteohub,2013-01-26 13:22:00,
2013-01-26 08:27:00,19.4,12.2,29.29,WNW,292,0.0,0.0,73,0.00,,,0.00,meteohub,2013-01-26 13:27:00,
2013-01-26 08:32:00,19.4,12.2,29.29,West,270,0.0,0.0,73,0.00,,,0.00,meteohub,2013-01-26 13:32:00,
2013-01-26 08:37:00,19.4,12.2,29.29,WNW,292,0.0,0.0,73,0.00,,,0.00,meteohub,2013-01-26 13:37:00,
2013-01-26 08:42:00,19.4,11.8,29.29,WSW,248,0.0,0.0,72,0.00,,,0.00,meteohub,2013-01-26 13:42:00,
2013-01-26 08:47:00,19.4,11.8,29.29,West,270,0.0,0.0,72,0.00,,,0.00,meteohub,2013-01-26 13:47:00,
2013-01-26 08:52:00,19.6,12.0,29.29,WSW,248,0.0,0.0,72,0.00,,,0.00,meteohub,2013-01-26 13:52:00,
2013-01-26 08:57:00,19.8,12.2,29.32,SSE,158,0.0,0.0,72,0.00,,,0.00,meteohub,2013-01-26 13:57:00,
2013-01-26 09:02:00,20.1,12.6,29.32,West,270,0.0,0.0,72,0.00,,,0.00,meteohub,2013-01-26 14:02:00,
2013-01-26 09:07:00,20.8,13.3,29.32,NW,315,0.0,0.0,72,0.00,,,0.00,meteohub,2013-01-26 14:07:00,
2013-01-26 09:12:00,21.2,13.6,29.35,NW,315,0.0,0.0,72,0.00,,,0.00,meteohub,2013-01-26 14:12:00,
2013-01-26 09:17:00,21.6,13.6,29.35,WNW,292,0.0,0.0,71,0.00,,,0.00,meteohub,2013-01-26 14:17:00,
2013-01-26 09:22:00,22.3,14.0,29.35,North,0,0.0,0.0,70,0.00,,,0.00,meteohub,2013-01-26 14:22:00,
2013-01-26 09:27:00,22.3,13.3,29.32,South,180,0.0,0.0,68,0.00,,,0.00,meteohub,2013-01-26 14:27:00,
2013-01-26 09:32:00,22.6,13.6,29.32,West,270,0.0,0.0,68,0.00,,,0.00,meteohub,2013-01-26 14:32:00,
2013-01-26 09:37:00,22.8,12.6,29.32,WNW,292,0.0,0.0,64,0.00,,,0.00,meteohub,2013-01-26 14:37:00,
2013-01-26 09:42:00,23.4,12.9,29.35,WNW,292,0.0,0.0,64,0.00,,,0.00,meteohub,2013-01-26 14:42:00,
2013-01-26 09:47:00,24.3,13.8,29.35,WNW,292,0.0,0.0,64,0.00,,,0.00,meteohub,2013-01-26 14:47:00,
2013-01-26 09:52:00,24.4,12.2,29.35,West,270,0.0,0.0,59,0.00,,,0.00,meteohub,2013-01-26 14:52:00,
2013-01-26 09:57:00,25.2,12.0,29.35,North,0,0.0,0.0,57,0.00,,,0.00,meteohub,2013-01-26 14:57:00,
2013-01-26 10:02:00,25.0,11.1,29.35,WSW,248,0.0,0.0,55,0.00,,,0.00,meteohub,2013-01-26 15:02:00,
2013-01-26 10:07:00,25.0,11.1,29.35,West,270,0.0,0.0,55,0.00,,,0.00,meteohub,2013-01-26 15:07:00,
2013-01-26 10:12:00,24.8,10.9,29.35,West,270,0.0,0.0,55,0.00,,,0.00,meteohub,2013-01-26 15:12:00,
2013-01-26 10:17:00,25.0,11.1,29.35,NNW,338,0.0,0.0,55,0.00,,,0.00,meteohub,2013-01-26 15:17:00,
2013-01-26 10:22:00,24.6,10.8,29.35,WNW,292,0.0,0.0,55,0.00,,,0.00,meteohub,2013-01-26 15:22:00,
2013-01-26 10:27:00,24.4,10.2,29.38,WNW,292,2.0,0.0,54,0.00,,,0.00,meteohub,2013-01-26 15:27:00,
2013-01-26 10:32:00,24.4,10.6,29.38,WSW,248,2.0,7.0,55,0.00,,,0.00,meteohub,2013-01-26 15:32:00,
2013-01-26 10:37:00,25.3,11.5,29.38,West,270,2.0,11.0,55,0.00,,,0.00,meteohub,2013-01-26 15:37:00,
2013-01-26 10:42:00,25.5,11.3,29.38,WSW,248,3.0,11.0,54,0.00,,,0.00,meteohub,2013-01-26 15:42:00,
2013-01-26 10:47:00,25.3,10.2,29.38,West,270,4.0,9.0,52,0.00,,,0.00,meteohub,2013-01-26 15:47:00,
2013-01-26 10:52:00,26.2,11.5,29.38,West,270,3.0,7.0,53,0.00,,,0.00,meteohub,2013-01-26 15:52:00,
2013-01-26 10:57:00,26.2,11.1,29.38,North,0,2.0,7.0,52,0.00,,,0.00,meteohub,2013-01-26 15:57:00,
2013-01-26 11:02:00,27.0,11.3,29.38,WSW,248,3.0,11.0,51,0.00,,,0.00,meteohub,2013-01-26 16:02:00,
2013-01-26 11:07:00,27.3,11.7,29.38,WNW,292,5.0,11.0,51,0.00,,,0.00,meteohub,2013-01-26 16:07:00,
2013-01-26 11:12:00,26.8,10.2,29.38,West,270,6.0,10.0,49,0.00,,,0.00,meteohub,2013-01-26 16:12:00,
2013-01-26 11:17:00,27.0,10.4,29.41,WNW,292,3.0,10.0,49,0.00,,,0.00,meteohub,2013-01-26 16:17:00,
2013-01-26 11:22:00,26.8,9.7,29.41,NW,315,4.0,10.0,48,0.00,,,0.00,meteohub,2013-01-26 16:22:00,
2013-01-26 11:27:00,27.9,11.1,29.41,West,270,1.0,10.0,49,0.00,,,0.00,meteohub,2013-01-26 16:27:00,
2013-01-26 11:32:00,28.2,11.1,29.41,WNW,292,9.0,10.0,48,0.00,,,0.00,meteohub,2013-01-26 16:32:00,
2013-01-26 11:37:00,28.8,11.1,29.41,NW,315,6.0,10.0,47,0.00,,,0.00,meteohub,2013-01-26 16:37:00,
2013-01-26 11:42:00,28.8,10.0,29.41,NW,315,8.0,10.0,45,0.00,,,0.00,meteohub,2013-01-26 16:42:00,
2013-01-26 11:47:00,29.7,11.5,29.41,West,270,2.0,10.0,46,0.00,,,0.00,meteohub,2013-01-26 16:47:00,
2013-01-26 11:52:00,29.5,10.2,29.41,SE,135,1.0,10.0,44,0.00,,,0.00,meteohub,2013-01-26 16:52:00,
2013-01-26 11:57:00,29.3,10.0,29.41,NW,315,5.0,10.0,44,0.00,,,0.00,meteohub,2013-01-26 16:57:00,
2013-01-26 12:02:00,30.9,12.0,29.41,West,270,2.0,8.0,45,0.00,,,0.00,meteohub,2013-01-26 17:02:00,
2013-01-26 12:07:00,31.3,11.5,29.41,West,270,3.0,8.0,43,0.00,,,0.00,meteohub,2013-01-26 17:07:00,
2013-01-26 12:12:00,30.9,10.6,29.41,NW,315,3.0,6.0,42,0.00,,,0.00,meteohub,2013-01-26 17:12:00,
2013-01-26 12:17:00,32.0,12.0,29.41,West,270,4.0,8.0,43,0.00,,,0.00,meteohub,2013-01-26 17:17:00,
2013-01-26 12:22:00,31.1,10.8,29.41,WNW,292,6.0,8.0,42,0.00,,,0.00,meteohub,2013-01-26 17:22:00,
2013-01-26 12:27:00,30.9,10.6,29.41,NW,315,3.0,8.0,42,0.00,,,0.00,meteohub,2013-01-26 17:27:00,
2013-01-26 12:32:00,31.5,11.7,29.41,NNW,338,1.0,9.0,43,0.00,,,0.00,meteohub,2013-01-26 17:32:00,
2013-01-26 12:37:00,31.1,10.2,29.41,West,270,3.0,9.0,41,0.00,,,0.00,meteohub,2013-01-26 17:37:00,
2013-01-26 12:42:00,31.6,11.1,29.41,NW,315,2.0,9.0,42,0.00,,,0.00,meteohub,2013-01-26 17:42:00,
2013-01-26 12:47:00,31.5,10.6,29.41,West,270,2.0,8.0,41,0.00,,,0.00,meteohub,2013-01-26 17:47:00,
2013-01-26 12:52:00,28.6,8.4,29.41,NE,45,1.0,8.0,42,0.00,,,0.00,meteohub,2013-01-26 17:52:00,
2013-01-26 12:57:00,28.6,8.4,29.41,NW,315,1.0,8.0,42,0.00,,,0.00,meteohub,2013-01-26 17:57:00,
2013-01-26 13:02:00,29.3,9.7,29.41,WNW,292,2.0,8.0,43,0.00,,,0.00,meteohub,2013-01-26 18:02:00,
2013-01-26 13:07:00,29.5,9.9,29.41,West,270,4.0,9.0,43,0.00,,,0.00,meteohub,2013-01-26 18:07:00,
2013-01-26 13:12:00,28.2,8.6,29.41,West,270,6.0,9.0,43,0.00,,,0.00,meteohub,2013-01-26 18:12:00,
2013-01-26 13:17:00,27.3,8.2,29.41,West,270,1.0,9.0,44,0.00,,,0.00,meteohub,2013-01-26 18:17:00,
2013-01-26 13:22:00,31.5,11.7,29.41,West,270,4.0,9.0,43,0.00,,,0.00,meteohub,2013-01-26 18:22:00,
2013-01-26 13:27:00,33.1,12.6,29.41,West,270,5.0,6.0,42,0.00,,,0.00,meteohub,2013-01-26 18:27:00,
2013-01-26 13:32:00,31.8,10.8,29.41,WSW,248,4.0,8.0,41,0.00,,,0.00,meteohub,2013-01-26 18:32:00,
2013-01-26 13:37:00,30.0,9.1,29.41,West,270,5.0,8.0,41,0.00,,,0.00,meteohub,2013-01-26 18:37:00,
2013-01-26 13:42:00,30.0,9.7,29.41,NW,315,1.0,9.0,42,0.00,,,0.00,meteohub,2013-01-26 18:42:00,
2013-01-26 13:47:00,29.5,8.8,29.41,West,270,3.0,9.0,41,0.00,,,0.00,meteohub,2013-01-26 18:47:00,
2013-01-26 13:52:00,30.0,9.7,29.41,West,270,3.0,7.0,42,0.00,,,0.00,meteohub,2013-01-26 18:52:00,
2013-01-26 13:57:00,28.8,8.1,29.41,West,270,2.0,7.0,41,0.00,,,0.00,meteohub,2013-01-26 18:57:00,
2013-01-26 14:02:00,30.2,9.9,29.41,West,270,4.0,11.0,42,0.00,,,0.00,meteohub,2013-01-26 19:02:00,
2013-01-26 14:07:00,32.7,11.7,29.41,NW,315,2.0,11.0,41,0.00,,,0.00,meteohub,2013-01-26 19:07:00,
2013-01-26 14:12:00,32.9,11.8,29.41,WSW,248,6.0,11.0,41,0.00,,,0.00,meteohub,2013-01-26 19:12:00,
2013-01-26 14:17:00,33.8,12.0,29.41,NNW,338,6.0,6.0,40,0.00,,,0.00,meteohub,2013-01-26 19:17:00,
2013-01-26 14:22:00,34.2,12.4,29.41,NW,315,6.0,9.0,40,0.00,,,0.00,meteohub,2013-01-26 19:22:00,
2013-01-26 14:27:00,34.2,11.8,29.41,NW,315,3.0,9.0,39,0.00,,,0.00,meteohub,2013-01-26 19:27:00,
2013-01-26 14:32:00,31.6,10.0,29.44,NW,315,4.0,10.0,40,0.00,,,0.00,meteohub,2013-01-26 19:32:00,
2013-01-26 14:38:00,31.5,10.0,29.44,NW,315,2.0,10.0,40,0.00,,,0.00,meteohub,2013-01-26 19:38:00,
2013-01-26 14:43:00,32.5,10.9,29.44,West,270,2.0,6.0,40,0.00,,,0.00,meteohub,2013-01-26 19:43:00,
2013-01-26 14:48:00,34.3,12.6,29.44,West,270,1.0,6.0,40,0.00,,,0.00,meteohub,2013-01-26 19:48:00,
2013-01-26 14:53:00,34.0,11.7,29.44,NNW,338,2.0,6.0,39,0.00,,,0.00,meteohub,2013-01-26 19:53:00,
2013-01-26 14:58:00,32.4,10.2,29.44,West,270,1.0,6.0,39,0.00,,,0.00,meteohub,2013-01-26 19:58:00,
2013-01-26 15:03:00,32.0,9.9,29.44,West,270,5.0,6.0,39,0.00,,,0.00,meteohub,2013-01-26 20:03:00,
2013-01-26 15:08:00,30.0,7.5,29.44,West,270,3.0,6.0,38,0.00,,,0.00,meteohub,2013-01-26 20:08:00,
2013-01-26 15:13:00,29.3,7.5,29.47,West,270,0.0,9.0,39,0.00,,,0.00,meteohub,2013-01-26 20:13:00,
2013-01-26 15:18:00,29.1,7.3,29.47,West,270,4.0,9.0,39,0.00,,,0.00,meteohub,2013-01-26 20:18:00,
2013-01-26 15:23:00,28.6,7.3,29.47,West,270,0.0,9.0,40,0.00,,,0.00,meteohub,2013-01-26 20:23:00,
2013-01-26 15:28:00,28.4,7.7,29.44,WSW,248,2.0,6.0,41,0.00,,,0.00,meteohub,2013-01-26 20:28:00,
2013-01-26 15:34:00,28.4,7.7,29.44,WNW,292,3.0,4.0,41,0.00,,,0.00,meteohub,2013-01-26 20:34:00,
2013-01-26 15:39:00,28.0,7.3,29.44,West,270,3.0,6.0,41,0.00,,,0.00,meteohub,2013-01-26 20:39:00,
2013-01-26 15:44:00,27.9,7.2,29.47,West,270,1.0,6.0,41,0.00,,,0.00,meteohub,2013-01-26 20:44:00,
2013-01-26 15:49:00,27.7,7.2,29.47,NNW,338,1.0,6.0,41,0.00,,,0.00,meteohub,2013-01-26 20:49:00,
2013-01-26 15:54:00,27.5,7.5,29.47,NW,315,0.0,5.0,42,0.00,,,0.00,meteohub,2013-01-26 20:54:00,
2013-01-26 15:59:00,27.3,7.3,29.47,North,0,2.0,6.0,42,0.00,,,0.00,meteohub,2013-01-26 20:59:00,
2013-01-26 16:04:00,27.0,7.0,29.47,NW,315,1.0,6.0,42,0.00,,,0.00,meteohub,2013-01-26 21:04:00,
2013-01-26 16:09:00,27.1,7.2,29.47,WSW,248,0.0,6.0,42,0.00,,,0.00,meteohub,2013-01-26 21:09:00,
2013-01-26 16:14:00,27.1,7.2,29.47,North,0,2.0,4.0,42,0.00,,,0.00,meteohub,2013-01-26 21:14:00,
2013-01-26 16:19:00,26.8,6.8,29.47,NW,315,0.0,4.0,42,0.00,,,0.00,meteohub,2013-01-26 21:19:00,
2013-01-26 16:25:00,26.8,6.8,29.47,West,270,3.0,4.0,42,0.00,,,0.00,meteohub,2013-01-26 21:25:00,
2013-01-26 16:30:00,26.8,6.8,29.47,NNW,338,2.0,3.0,42,0.00,,,0.00,meteohub,2013-01-26 21:30:00,
2013-01-26 16:35:00,26.6,7.2,29.47,North,0,1.0,4.0,43,0.00,,,0.00,meteohub,2013-01-26 21:35:00,
2013-01-26 16:40:00,26.4,7.0,29.47,NW,315,0.0,6.0,43,0.00,,,0.00,meteohub,2013-01-26 21:40:00,
2013-01-26 16:45:00,26.1,6.6,29.47,West,270,3.0,6.0,43,0.00,,,0.00,meteohub,2013-01-26 21:45:00,
2013-01-26 16:50:00,25.5,6.1,29.47,NW,315,2.0,6.0,43,0.00,,,0.00,meteohub,2013-01-26 21:50:00,
2013-01-26 16:55:00,25.2,5.9,29.47,NNE,22,3.0,4.0,43,0.00,,,0.00,meteohub,2013-01-26 21:55:00,
2013-01-26 17:00:00,25.0,5.7,29.47,NW,315,0.0,4.0,43,0.00,,,0.00,meteohub,2013-01-26 22:00:00,
2013-01-26 17:06:00,24.8,6.1,29.47,NNW,338,1.0,4.0,44,0.00,,,0.00,meteohub,2013-01-26 22:06:00,
2013-01-26 17:11:00,24.4,5.7,29.47,West,270,0.0,3.0,44,0.00,,,0.00,meteohub,2013-01-26 22:11:00,
2013-01-26 17:16:00,24.3,5.5,29.47,West,270,1.0,2.0,44,0.00,,,0.00,meteohub,2013-01-26 22:16:00,
2013-01-26 17:21:00,23.7,5.5,29.47,NW,315,0.0,2.0,45,0.00,,,0.00,meteohub,2013-01-26 22:21:00,
2013-01-26 17:26:00,23.2,5.0,29.47,WNW,292,0.0,3.0,45,0.00,,,0.00,meteohub,2013-01-26 22:26:00,
2013-01-26 17:31:00,22.8,4.6,29.50,WNW,292,0.0,3.0,45,0.00,,,0.00,meteohub,2013-01-26 22:31:00,
2013-01-26 17:36:00,22.5,4.8,29.50,NW,315,0.0,2.0,46,0.00,,,0.00,meteohub,2013-01-26 22:36:00,
2013-01-26 17:41:00,22.1,4.5,29.50,WNW,292,0.0,2.0,46,0.00,,,0.00,meteohub,2013-01-26 22:41:00,
2013-01-26 17:47:00,21.9,4.3,29.50,WNW,292,0.0,2.0,46,0.00,,,0.00,meteohub,2013-01-26 22:47:00,
2013-01-26 17:52:00,21.4,3.9,29.50,WNW,292,0.0,1.0,46,0.00,,,0.00,meteohub,2013-01-26 22:52:00,
2013-01-26 17:57:00,21.4,4.3,29.53,WNW,292,0.0,0.0,47,0.00,,,0.00,meteohub,2013-01-26 22:57:00,
2013-01-26 18:02:00,20.8,3.7,29.53,WNW,292,0.0,0.0,47,0.00,,,0.00,meteohub,2013-01-26 23:02:00,
2013-01-26 18:07:00,20.3,3.7,29.53,WNW,292,0.0,0.0,48,0.00,,,0.00,meteohub,2013-01-26 23:07:00,
2013-01-26 18:12:00,20.1,3.6,29.50,WNW,292,0.0,0.0,48,0.00,,,0.00,meteohub,2013-01-26 23:12:00,
2013-01-26 18:17:00,19.6,3.0,29.50,WNW,292,0.0,0.0,48,0.00,,,0.00,meteohub,2013-01-26 23:17:00,
2013-01-26 18:22:00,19.2,3.2,29.50,WNW,292,0.0,0.0,49,0.00,,,0.00,meteohub,2013-01-26 23:22:00,
2013-01-26 18:27:00,19.4,3.4,29.50,WNW,292,0.0,0.0,49,0.00,,,0.00,meteohub,2013-01-26 23:27:00,
2013-01-26 18:32:00,19.4,3.4,29.53,WNW,292,0.0,0.0,49,0.00,,,0.00,meteohub,2013-01-26 23:32:00,
2013-01-26 18:37:00,19.2,3.7,29.53,WNW,292,0.0,0.0,50,0.00,,,0.00,meteohub,2013-01-26 23:37:00,
2013-01-26 18:42:00,18.9,3.4,29.53,WNW,292,0.0,0.0,50,0.00,,,0.00,meteohub,2013-01-26 23:42:00,
2013-01-26 18:47:00,18.7,3.6,29.53,WNW,292,0.0,0.0,51,0.00,,,0.00,meteohub,2013-01-26 23:47:00,
2013-01-26 18:52:00,18.9,4.1,29.53,WNW,292,0.0,0.0,52,0.00,,,0.00,meteohub,2013-01-26 23:52:00,
2013-01-26 18:57:00,18.7,4.5,29.53,WNW,292,0.0,0.0,53,0.00,,,0.00,meteohub,2013-01-26 23:57:00,
2013-01-26 19:02:00,18.3,3.7,29.53,WNW,292,0.0,0.0,52,0.00,,,0.00,meteohub,2013-01-27 00:02:00,
2013-01-26 19:07:00,18.1,3.9,29.53,WNW,292,0.0,0.0,53,0.00,,,0.00,meteohub,2013-01-27 00:07:00,
2013-01-26 19:12:00,18.0,3.7,29.53,WNW,292,0.0,0.0,53,0.00,,,0.00,meteohub,2013-01-27 00:12:00,
2013-01-26 19:17:00,17.6,3.4,29.53,WNW,292,0.0,0.0,53,0.00,,,0.00,meteohub,2013-01-27 00:17:00,
2013-01-26 19:22:00,17.4,3.6,29.53,WNW,292,0.0,0.0,54,0.00,,,0.00,meteohub,2013-01-27 00:22:00,
2013-01-26 19:27:00,17.1,3.4,29.53,WNW,292,0.0,0.0,54,0.00,,,0.00,meteohub,2013-01-27 00:27:00,
2013-01-26 19:32:00,16.7,3.0,29.53,WNW,292,0.0,0.0,54,0.00,,,0.00,meteohub,2013-01-27 00:32:00,
2013-01-26 19:37:00,16.7,3.0,29.53,WNW,292,0.0,0.0,54,0.00,,,0.00,meteohub,2013-01-27 00:37:00,
2013-01-26 19:42:00,17.4,4.1,29.53,WNW,292,0.0,0.0,55,-99.99,,,0.00,meteohub,2013-01-27 00:42:00,
2013-01-26 19:47:00,16.9,3.6,29.53,WNW,292,0.0,0.0,55,-99.99,,,0.00,meteohub,2013-01-27 00:47:00,
2013-01-26 19:52:00,17.6,4.6,29.53,WNW,292,0.0,0.0,56,-99.99,,,0.00,meteohub,2013-01-27 00:52:00,
2013-01-26 19:57:00,17.4,4.5,29.50,WNW,292,0.0,0.0,56,0.00,,,0.00,meteohub,2013-01-27 00:57:00,
2013-01-26 20:02:00,17.6,5.0,29.50,WNW,292,0.0,0.0,57,0.00,,,0.00,meteohub,2013-01-27 01:02:00,
2013-01-26 20:07:00,17.6,5.0,29.50,WNW,292,0.0,0.0,57,0.00,,,0.00,meteohub,2013-01-27 01:07:00,
2013-01-26 20:12:00,17.4,4.5,29.50,WNW,292,0.0,0.0,56,0.00,,,0.00,meteohub,2013-01-27 01:12:00,
2013-01-26 20:17:00,17.4,4.5,29.53,WNW,292,0.0,0.0,56,0.00,,,0.00,meteohub,2013-01-27 01:17:00,
2013-01-26 20:22:00,17.1,4.1,29.53,WNW,292,0.0,0.0,56,0.00,,,0.00,meteohub,2013-01-27 01:22:00,
2013-01-26 20:27:00,17.1,4.1,29.53,WNW,292,0.0,0.0,56,0.00,,,0.00,meteohub,2013-01-27 01:27:00,
2013-01-26 20:32:00,16.5,3.6,29.53,WNW,292,0.0,0.0,56,0.00,,,0.00,meteohub,2013-01-27 01:32:00,
2013-01-26 20:37:00,16.7,3.7,29.53,WNW,292,0.0,0.0,56,0.00,,,0.00,meteohub,2013-01-27 01:37:00,
2013-01-26 20:42:00,16.7,4.8,29.53,WNW,292,2.0,0.0,59,0.00,,,0.00,meteohub,2013-01-27 01:42:00,
2013-01-26 20:47:00,16.5,4.3,29.53,WNW,292,0.0,2.0,58,0.00,,,0.00,meteohub,2013-01-27 01:47:00,
2013-01-26 20:52:00,16.0,3.9,29.53,WNW,292,0.0,2.0,58,0.00,,,0.00,meteohub,2013-01-27 01:52:00,
2013-01-26 20:57:00,15.8,3.7,29.53,WNW,292,0.0,2.0,58,-99.99,,,0.00,meteohub,2013-01-27 01:57:00,
2013-01-26 21:02:00,15.4,3.4,29.53,WNW,292,0.0,2.0,58,-99.99,,,0.00,meteohub,2013-01-27 02:02:00,
2013-01-26 21:07:00,15.8,4.5,29.53,WNW,292,0.0,0.0,60,0.00,,,0.00,meteohub,2013-01-27 02:07:00,
2013-01-26 21:12:00,15.6,4.3,29.53,WNW,292,0.0,0.0,60,0.00,,,0.00,meteohub,2013-01-27 02:12:00,
2013-01-26 21:17:00,15.3,4.3,29.53,WNW,292,0.0,0.0,61,0.00,,,0.00,meteohub,2013-01-27 02:17:00,
2013-01-26 21:22:00,15.3,4.6,29.53,WNW,292,0.0,0.0,62,0.00,,,0.00,meteohub,2013-01-27 02:22:00,
2013-01-26 21:27:00,14.9,3.9,29.56,WNW,292,0.0,0.0,61,0.00,,,0.00,meteohub,2013-01-27 02:27:00,
2013-01-26 21:32:00,15.1,4.8,29.56,WNW,292,0.0,0.0,63,0.00,,,0.00,meteohub,2013-01-27 02:32:00,
2013-01-26 21:37:00,14.9,4.3,29.56,WNW,292,2.0,2.0,62,0.00,,,0.00,meteohub,2013-01-27 02:37:00,
2013-01-26 21:42:00,14.9,4.6,29.56,WNW,292,2.0,2.0,63,0.00,,,0.00,meteohub,2013-01-27 02:42:00,
2013-01-26 21:47:00,14.9,4.6,29.56,WNW,292,2.0,2.0,63,0.00,,,0.00,meteohub,2013-01-27 02:47:00,
2013-01-26 21:52:00,14.9,5.9,29.56,WNW,292,2.0,2.0,67,0.00,,,0.00,meteohub,2013-01-27 02:52:00,
2013-01-26 21:57:00,14.7,5.4,29.56,WNW,292,1.0,2.0,66,0.00,,,0.00,meteohub,2013-01-27 02:57:00,
2013-01-26 22:02:00,14.5,5.0,29.56,WNW,292,0.0,2.0,65,0.00,,,0.00,meteohub,2013-01-27 03:02:00,
2013-01-26 22:07:00,14.5,4.6,29.56,WNW,292,0.0,2.0,64,0.00,,,0.00,meteohub,2013-01-27 03:07:00,
2013-01-26 22:12:00,14.4,4.5,29.56,WNW,292,0.0,2.0,64,0.00,,,0.00,meteohub,2013-01-27 03:12:00,
2013-01-26 22:17:00,14.5,4.6,29.59,WNW,292,1.0,1.0,64,0.00,,,0.00,meteohub,2013-01-27 03:17:00,
2013-01-26 22:22:00,14.4,4.5,29.59,WNW,292,0.0,2.0,64,-99.99,,,0.00,meteohub,2013-01-27 03:22:00,
2013-01-26 22:27:00,14.0,4.1,29.56,WNW,292,0.0,2.0,64,-99.99,,,0.00,meteohub,2013-01-27 03:27:00,
2013-01-26 22:32:00,13.8,3.9,29.56,WNW,292,0.0,2.0,64,-99.99,,,0.00,meteohub,2013-01-27 03:32:00,
2013-01-26 22:37:00,13.8,3.9,29.56,WNW,292,0.0,0.0,64,-99.99,,,0.00,meteohub,2013-01-27 03:37:00,
2013-01-26 22:42:00,13.5,3.6,29.56,WNW,292,0.0,0.0,64,-99.99,,,0.00,meteohub,2013-01-27 03:42:00,
2013-01-26 22:47:00,13.3,3.4,29.53,WNW,292,0.0,0.0,64,-99.99,,,0.00,meteohub,2013-01-27 03:47:00,
2013-01-26 22:52:00,13.3,3.4,29.53,WNW,292,0.0,0.0,64,-99.99,,,0.00,meteohub,2013-01-27 03:52:00,
2013-01-26 22:57:00,13.3,3.4,29.56,WNW,292,0.0,0.0,64,-99.99,,,0.00,meteohub,2013-01-27 03:57:00,
2013-01-26 23:02:00,12.9,3.0,29.56,WNW,292,0.0,0.0,64,-99.99,,,0.00,meteohub,2013-01-27 04:02:00,
2013-01-26 23:07:00,12.9,3.0,29.56,WNW,292,1.0,2.0,64,-99.99,,,0.00,meteohub,2013-01-27 04:07:00,
2013-01-26 23:12:00,12.9,3.0,29.59,WNW,292,2.0,3.0,64,-99.99,,,0.00,meteohub,2013-01-27 04:12:00,
2013-01-26 23:17:00,12.7,2.8,29.59,WNW,292,0.0,3.0,64,-99.99,,,0.00,meteohub,2013-01-27 04:17:00,
2013-01-26 23:22:00,12.7,2.8,29.59,WNW,292,0.0,3.0,64,-99.99,,,0.00,meteohub,2013-01-27 04:22:00,
2013-01-26 23:27:00,12.6,2.7,29.59,WNW,292,0.0,2.0,64,-99.99,,,0.00,meteohub,2013-01-27 04:27:00,
2013-01-26 23:32:00,12.4,2.5,29.59,WNW,292,0.0,0.0,64,-99.99,,,0.00,meteohub,2013-01-27 04:32:00,
2013-01-26 23:37:00,12.4,2.5,29.59,WNW,292,2.0,0.0,64,-99.99,,,0.00,meteohub,2013-01-27 04:37:00,
2013-01-26 23:46:00,12.9,3.0,29.59,WNW,292,1.0,2.0,64,-99.99,,,0.00,meteohub,2013-01-27 04:46:00,
2013-01-26 23:51:00,12.9,3.0,29.59,WNW,292,1.0,2.0,64,-99.99,,,0.00,meteohub,2013-01-27 04:51:00,
2013-01-26 23:56:00,12.9,3.0,29.59,WNW,292,0.0,1.0,64,-99.99,,,0.00,meteohub,2013-01-27 04:56:00,